Time;durP1;ratioP1;P1;durP2;ratioP2;P2;SDS_P1;SDS_P2;PMS_P1;PMS_P2;Temp;Humidity;BMP_temperature;BMP_pressure;BME280_temperature;BME280_humidity;BME280_pressure;Samples;Min_cycle;Max_cycle;Signal;HPM_P1;HPM_P2
2022/08/29 00:00:59;;;;;;;6.60;1.88;;;18.70;92.00;;;;;;5073851;28;20056;-46
2022/08/29 00:03:25;;;;;;;7.00;2.03;;;18.70;92.00;;;;;;5073572;28;20043;-46
2022/08/29 00:05:51;;;;;;;7.85;3.03;;;18.70;92.00;;;;;;5073946;28;20024;-46
2022/08/29 00:08:17;;;;;;;7.25;2.33;;;18.60;92.00;;;;;;5073804;28;20036;-46
2022/08/29 00:10:44;;;;;;;5.32;2.22;;;18.60;92.00;;;;;;5073836;28;20032;-46
2022/08/29 00:13:12;;;;;;;9.73;2.20;;;18.60;92.00;;;;;;5073476;28;20020;-44
2022/08/29 00:15:39;;;;;;;6.97;1.90;;;18.60;92.10;;;;;;5073300;28;20119;-44
2022/08/29 00:18:06;;;;;;;7.13;1.88;;;18.50;92.20;;;;;;5055466;28;20028;-44
2022/08/29 00:20:32;;;;;;;7.20;2.03;;;18.50;92.10;;;;;;5073510;28;20021;-43
2022/08/29 00:22:58;;;;;;;4.05;2.15;;;18.50;92.20;;;;;;5072973;28;20446;-44
2022/08/29 00:25:24;;;;;;;5.25;2.28;;;18.40;92.30;;;;;;5073200;28;20029;-46
2022/08/29 00:27:50;;;;;;;7.32;2.10;;;18.50;92.30;;;;;;5073229;28;20484;-45
2022/08/29 00:30:18;;;;;;;8.75;1.88;;;18.40;92.40;;;;;;5073298;28;20249;-47
2022/08/29 00:32:44;;;;;;;6.10;1.98;;;18.40;92.30;;;;;;5072571;28;20020;-43
2022/08/29 00:35:22;;;;;;;6.13;2.85;;;18.50;92.20;;;;;;5055270;28;20036;-45
2022/08/29 00:37:48;;;;;;;6.00;1.88;;;18.40;92.40;;;;;;5055211;28;20035;-46
2022/08/29 00:40:23;;;;;;;4.13;2.10;;;18.40;92.30;;;;;;5073178;28;20107;-48
2022/08/29 00:42:49;;;;;;;4.32;1.83;;;18.40;92.40;;;;;;5072953;28;20070;-46
2022/08/29 00:45:16;;;;;;;4.50;2.10;;;18.30;92.50;;;;;;5072702;28;20468;-43
2022/08/29 00:47:51;;;;;;;7.50;2.60;;;18.30;92.60;;;;;;5073082;28;20023;-44
2022/08/29 00:50:42;;;;;;;10.93;2.53;;;18.30;92.70;;;;;;5072923;28;20024;-46
2022/08/29 00:53:12;;;;;;;4.93;1.92;;;18.20;92.80;;;;;;5072546;28;20263;-48
2022/08/29 00:55:39;;;;;;;6.05;2.15;;;18.20;92.90;;;;;;5073440;28;20123;-45
2022/08/29 00:58:17;;;;;;;9.30;2.33;;;18.20;92.90;;;;;;5072902;28;20036;-45
2022/08/29 01:00:43;;;;;;;4.93;1.77;;;18.10;92.90;;;;;;5072772;28;20423;-44
2022/08/29 01:03:09;;;;;;;4.72;1.85;;;18.00;93.00;;;;;;5072385;28;20029;-46
2022/08/29 01:05:36;;;;;;;3.45;1.92;;;18.00;93.00;;;;;;5072458;28;20047;-45
2022/08/29 01:08:03;;;;;;;7.10;2.40;;;17.90;93.30;;;;;;5073020;28;20515;-42
2022/08/29 01:13:13;;;;;;;6.38;2.25;;;17.90;93.40;;;;;;5072296;28;20031;-45
2022/08/29 01:15:41;;;;;;;4.28;1.85;;;17.90;93.40;;;;;;5072288;28;20033;-44
2022/08/29 01:18:39;;;;;;;5.93;2.30;;;17.90;93.40;;;;;;5072630;28;20349;-43
2022/08/29 01:21:22;;;;;;;4.78;2.13;;;17.80;93.50;;;;;;5070705;28;20020;-44
2022/08/29 01:23:53;;;;;;;3.88;1.83;;;17.90;93.60;;;;;;5072113;28;20039;-45
2022/08/29 01:26:21;;;;;;;3.67;1.80;;;17.80;93.50;;;;;;5072243;28;20029;-45
2022/08/29 01:28:50;;;;;;;5.22;2.30;;;17.70;93.70;;;;;;5072278;28;20376;-44
2022/08/29 01:31:22;;;;;;;4.15;1.52;;;17.60;93.80;;;;;;5054376;28;20059;-50
2022/08/29 01:33:56;;;;;;;6.50;2.78;;;17.60;93.90;;;;;;5071496;28;20066;-47
2022/08/29 01:36:36;;;;;;;8.65;2.15;;;17.60;94.10;;;;;;5072211;28;20095;-44
2022/08/29 01:39:04;;;;;;;5.97;1.90;;;17.50;94.00;;;;;;5072198;28;20017;-44
2022/08/29 01:41:30;;;;;;;6.47;2.10;;;17.60;94.20;;;;;;5072008;28;20029;-47
2022/08/29 01:43:56;;;;;;;4.22;2.00;;;17.60;94.20;;;;;;5071434;28;20066;-45
2022/08/29 01:46:27;;;;;;;5.80;2.20;;;17.60;94.20;;;;;;5071807;28;20028;-44
2022/08/29 01:48:53;;;;;;;9.13;2.03;;;17.60;94.30;;;;;;5072136;28;20028;-43
2022/08/29 01:51:19;;;;;;;2.83;1.75;;;17.50;94.30;;;;;;5071788;28;20104;-45
2022/08/29 01:53:44;;;;;;;6.40;2.30;;;17.50;94.40;;;;;;5071495;28;20029;-43
2022/08/29 01:56:15;;;;;;;6.97;2.10;;;17.30;94.50;;;;;;5053827;28;20028;-44
2022/08/29 01:58:42;;;;;;;7.55;2.20;;;17.40;94.70;;;;;;5071665;28;20539;-48
2022/08/29 02:01:11;;;;;;;5.20;2.35;;;17.40;94.70;;;;;;5053663;28;20115;-45
2022/08/29 02:03:37;;;;;;;4.90;1.88;;;17.40;94.70;;;;;;5053267;28;20111;-46
2022/08/29 02:06:03;;;;;;;3.17;1.80;;;17.30;94.80;;;;;;5071673;28;20535;-44
2022/08/29 02:08:29;;;;;;;6.88;2.15;;;17.30;94.90;;;;;;5071981;28;20029;-48
2022/08/29 02:10:57;;;;;;;6.38;2.17;;;17.30;95.00;;;;;;5071306;28;20024;-44
2022/08/29 02:13:23;;;;;;;7.70;2.10;;;17.20;95.00;;;;;;5053087;28;20404;-44
2022/08/29 02:15:49;;;;;;;4.75;2.08;;;17.20;95.20;;;;;;5071430;28;20100;-47
2022/08/29 02:18:15;;;;;;;5.38;2.85;;;17.20;95.10;;;;;;5071617;28;20029;-46
2022/08/29 02:20:40;;;;;;;5.20;2.20;;;17.20;95.20;;;;;;5071411;28;20021;-43
2022/08/29 02:23:06;;;;;;;8.93;2.03;;;17.20;95.30;;;;;;5070705;28;20066;-45
2022/08/29 02:25:40;;;;;;;6.82;2.03;;;17.10;95.30;;;;;;5071072;28;20484;-46
2022/08/29 02:28:07;;;;;;;9.80;2.42;;;17.00;95.40;;;;;;5071394;28;20503;-47
2022/08/29 02:30:33;;;;;;;4.90;2.10;;;17.00;95.40;;;;;;5071211;28;20488;-46
2022/08/29 02:32:59;;;;;;;5.13;2.08;;;17.00;95.60;;;;;;5070772;28;20051;-43
2022/08/29 02:35:24;;;;;;;9.13;2.58;;;17.00;95.60;;;;;;5053257;28;20532;-46
2022/08/29 02:37:51;;;;;;;4.45;2.28;;;16.90;95.60;;;;;;5071157;28;20402;-47
2022/08/29 02:40:17;;;;;;;5.90;1.95;;;16.90;95.60;;;;;;5071311;28;20067;-45
2022/08/29 02:42:42;;;;;;;5.78;2.45;;;16.90;95.70;;;;;;5070697;28;20097;-46
2022/08/29 02:45:09;;;;;;;5.68;1.90;;;16.90;95.80;;;;;;5071083;28;20082;-43
2022/08/29 02:47:35;;;;;;;4.57;2.05;;;16.80;96.00;;;;;;5071095;28;20017;-45
2022/08/29 02:50:05;;;;;;;5.57;1.98;;;16.80;96.10;;;;;;5071166;28;20021;-45
2022/08/29 02:52:30;;;;;;;4.03;1.60;;;16.90;95.90;;;;;;5070540;28;20064;-45
2022/08/29 02:54:56;;;;;;;5.68;2.22;;;16.70;96.10;;;;;;5071140;28;20040;-45
2022/08/29 02:57:22;;;;;;;5.90;1.85;;;16.70;96.20;;;;;;5070934;28;20107;-45
2022/08/29 02:59:48;;;;;;;5.88;2.10;;;16.60;96.60;;;;;;5071056;28;20540;-47
2022/08/29 03:02:13;;;;;;;13.38;1.98;;;16.60;96.30;;;;;;5070612;28;20167;-48
2022/08/29 03:04:39;;;;;;;7.95;1.90;;;16.60;96.40;;;;;;5071314;28;20035;-44
2022/08/29 03:07:04;;;;;;;8.02;2.17;;;16.60;96.30;;;;;;5052984;28;20020;-44
2022/08/29 03:09:30;;;;;;;7.60;2.13;;;16.60;96.40;;;;;;5070990;28;20035;-46
2022/08/29 03:11:55;;;;;;;6.03;2.05;;;16.60;96.50;;;;;;5070700;28;20023;-45
2022/08/29 03:14:22;;;;;;;7.68;2.13;;;16.60;96.50;;;;;;5070998;28;20028;-48
2022/08/29 03:16:48;;;;;;;3.22;1.98;;;16.60;96.70;;;;;;5070829;28;20024;-46
2022/08/29 03:19:13;;;;;;;3.95;2.17;;;16.60;96.60;;;;;;5070938;28;20527;-46
2022/08/29 03:21:40;;;;;;;7.70;2.22;;;16.50;96.60;;;;;;5070552;28;20037;-46
2022/08/29 03:24:05;;;;;;;7.03;1.73;;;16.40;96.80;;;;;;5070492;28;20045;-47
2022/08/29 03:26:31;;;;;;;5.68;2.13;;;16.40;96.90;;;;;;5070625;28;20070;-46
2022/08/29 03:28:56;;;;;;;7.22;2.22;;;16.40;97.10;;;;;;5070963;28;20484;-45
2022/08/29 03:31:22;;;;;;;4.25;2.30;;;16.40;97.00;;;;;;5070740;28;20450;-44
2022/08/29 03:33:48;;;;;;;4.72;2.53;;;16.40;97.00;;;;;;5071603;28;20047;-45
2022/08/29 03:36:13;;;;;;;4.30;1.88;;;16.40;97.10;;;;;;5074648;28;20054;-44
2022/08/29 03:38:39;;;;;;;6.05;2.30;;;16.30;97.20;;;;;;5074472;28;20082;-42
2022/08/29 03:41:06;;;;;;;9.27;2.08;;;16.30;97.30;;;;;;5074371;28;20101;-44
2022/08/29 03:43:32;;;;;;;4.28;1.52;;;16.30;97.20;;;;;;5073832;28;20028;-44
2022/08/29 03:45:57;;;;;;;3.10;2.08;;;16.30;97.30;;;;;;5075420;28;20035;-44
2022/08/29 03:48:23;;;;;;;4.78;1.90;;;16.30;97.20;;;;;;5056236;28;20017;-43
2022/08/29 03:50:48;;;;;;;9.13;2.17;;;16.30;97.40;;;;;;5074388;28;20514;-44
2022/08/29 03:53:14;;;;;;;4.43;2.15;;;16.30;97.40;;;;;;5073844;28;20525;-44
2022/08/29 03:55:40;;;;;;;11.77;2.22;;;16.30;97.40;;;;;;5074244;28;20369;-46
2022/08/29 03:58:06;;;;;;;7.32;2.13;;;16.30;97.40;;;;;;5073897;28;20024;-45
2022/08/29 04:00:31;;;;;;;4.80;2.58;;;16.30;97.40;;;;;;5074040;28;20040;-44
2022/08/29 04:02:57;;;;;;;6.22;2.33;;;16.30;97.40;;;;;;5073341;28;20024;-45
2022/08/29 04:05:24;;;;;;;9.50;2.47;;;16.20;97.50;;;;;;5074304;28;20051;-47
2022/08/29 04:07:53;;;;;;;8.43;2.67;;;16.20;97.50;;;;;;5074392;28;20016;-46
2022/08/29 04:10:26;;;;;;;7.15;2.33;;;16.20;97.60;;;;;;5073707;28;20052;-43
2022/08/29 04:12:52;;;;;;;5.88;2.17;;;16.10;97.70;;;;;;5073716;28;20055;-46
2022/08/29 04:15:18;;;;;;;8.77;2.05;;;16.10;97.80;;;;;;5073511;28;20079;-46
2022/08/29 04:17:44;;;;;;;11.02;1.95;;;16.10;97.90;;;;;;5073219;28;20407;-46
2022/08/29 04:20:11;;;;;;;9.57;2.15;;;16.10;98.00;;;;;;5073627;28;20111;-43
2022/08/29 04:22:39;;;;;;;5.45;2.13;;;16.00;98.10;;;;;;5073327;28;20480;-43
2022/08/29 04:25:07;;;;;;;4.65;2.22;;;16.00;98.10;;;;;;5073141;28;20028;-44
2022/08/29 04:27:35;;;;;;;8.70;2.20;;;16.00;98.10;;;;;;5073391;28;20029;-44
2022/08/29 04:30:03;;;;;;;7.60;2.25;;;16.00;98.10;;;;;;5073289;28;20020;-45
2022/08/29 04:32:29;;;;;;;4.43;2.05;;;16.00;98.10;;;;;;5072636;28;20032;-44
2022/08/29 04:34:56;;;;;;;9.27;2.20;;;15.90;98.10;;;;;;5073427;28;20040;-43
2022/08/29 04:37:22;;;;;;;3.30;2.10;;;15.90;98.20;;;;;;5073569;28;20033;-45
2022/08/29 04:39:48;;;;;;;5.50;2.78;;;15.80;98.30;;;;;;5074720;28;20035;-44
2022/08/29 04:42:13;;;;;;;8.52;2.22;;;15.80;98.60;;;;;;5072990;28;20047;-45
2022/08/29 04:44:39;;;;;;;7.38;2.40;;;15.80;98.50;;;;;;5072430;28;20115;-43
2022/08/29 04:47:05;;;;;;;5.57;2.40;;;15.80;98.60;;;;;;5072841;28;20025;-46
2022/08/29 04:49:30;;;;;;;2.67;1.85;;;15.80;98.50;;;;;;5072854;28;20052;-45
2022/08/29 04:51:56;;;;;;;7.03;2.55;;;15.80;98.60;;;;;;5054606;28;20498;-43
2022/08/29 04:54:22;;;;;;;5.68;2.63;;;15.90;98.50;;;;;;5072610;28;20052;-44
2022/08/29 04:56:48;;;;;;;6.43;2.53;;;15.90;98.50;;;;;;5072687;28;20017;-44
2022/08/29 04:59:15;;;;;;;6.72;3.05;;;15.90;98.40;;;;;;5072677;28;20150;-45
2022/08/29 05:01:41;;;;;;;4.15;3.13;;;16.00;98.40;;;;;;5072568;28;20032;-44
2022/08/29 05:04:06;;;;;;;7.30;2.45;;;16.00;98.40;;;;;;5072194;28;20028;-45
2022/08/29 05:06:31;;;;;;;4.38;2.58;;;16.10;98.40;;;;;;5072664;28;20499;-44
2022/08/29 05:08:57;;;;;;;8.15;3.15;;;16.40;98.00;;;;;;5072443;28;20020;-48
2022/08/29 05:11:23;;;;;;;7.95;3.33;;;16.70;97.40;;;;;;5072529;28;20024;-47
2022/08/29 05:13:48;;;;;;;4.47;2.60;;;17.00;96.90;;;;;;5072020;28;20048;-47
2022/08/29 05:16:16;;;;;;;8.00;3.17;;;17.40;96.20;;;;;;5072356;28;20032;-47
2022/08/29 05:18:45;;;;;;;6.97;2.53;;;17.70;95.70;;;;;;5072191;28;20369;-44
2022/08/29 05:21:12;;;;;;;3.88;2.58;;;18.00;95.10;;;;;;5070046;28;20020;-48
2022/08/29 05:23:39;;;;;;;8.30;2.88;;;18.30;94.60;;;;;;5062632;28;20025;-44
2022/08/29 05:26:05;;;;;;;8.25;3.42;;;18.50;94.40;;;;;;5034352;28;20028;-44
2022/08/29 05:28:33;;;;;;;5.40;2.67;;;18.60;93.90;;;;;;5052167;28;20024;-43
2022/08/29 05:30:59;;;;;;;4.18;2.03;;;18.50;94.00;;;;;;5053526;28;20090;-45
2022/08/29 05:33:26;;;;;;;13.73;3.53;;;18.50;94.20;;;;;;5071631;28;20519;-45
2022/08/29 05:35:51;;;;;;;7.97;2.40;;;18.40;94.20;;;;;;5072011;28;20021;-43
2022/08/29 05:38:17;;;;;;;5.95;2.20;;;18.30;94.40;;;;;;5071144;28;20066;-45
2022/08/29 05:40:42;;;;;;;5.57;2.60;;;18.20;94.60;;;;;;5056827;28;20052;-46
2022/08/29 05:43:11;;;;;;;8.98;3.22;;;18.30;94.40;;;;;;5053159;28;20052;-49
2022/08/29 05:45:37;;;;;;;6.70;2.47;;;18.30;94.40;;;;;;5071748;28;20024;-49
2022/08/29 05:48:05;;;;;;;8.43;3.03;;;18.20;94.60;;;;;;5071121;28;20062;-44
2022/08/29 05:50:30;;;;;;;6.90;2.90;;;18.10;94.60;;;;;;5071533;28;20078;-45
2022/08/29 05:52:56;;;;;;;7.32;3.10;;;18.00;94.90;;;;;;5070976;28;20430;-45
2022/08/29 05:55:22;;;;;;;6.20;2.33;;;18.00;95.00;;;;;;5070991;28;20028;-46
2022/08/29 05:57:50;;;;;;;10.95;2.80;;;18.00;95.00;;;;;;5066224;28;20062;-43
2022/08/29 06:00:16;;;;;;;5.10;2.30;;;18.10;94.90;;;;;;5071209;28;20020;-46
2022/08/29 06:02:41;;;;;;;9.13;3.33;;;18.30;94.80;;;;;;5054435;28;20032;-50
2022/08/29 06:05:08;;;;;;;10.70;3.28;;;18.70;94.30;;;;;;5067197;28;20025;-46
2022/08/29 06:07:33;;;;;;;9.18;3.28;;;19.10;93.40;;;;;;5070739;28;20438;-48
2022/08/29 06:10:00;;;;;;;11.07;2.92;;;19.40;93.20;;;;;;5070981;28;20020;-51
2022/08/29 06:12:26;;;;;;;7.32;3.60;;;19.80;92.70;;;;;;5053943;28;20107;-49
2022/08/29 06:14:52;;;;;;;5.13;3.22;;;20.30;91.90;;;;;;5071614;28;20044;-45
2022/08/29 06:17:18;;;;;;;6.20;3.15;;;20.90;91.20;;;;;;5071685;28;20024;-49
2022/08/29 06:19:43;;;;;;;7.70;3.13;;;21.20;90.50;;;;;;5053277;28;20024;-44
2022/08/29 06:22:09;;;;;;;4.63;3.00;;;21.10;90.50;;;;;;5071040;28;20028;-44
2022/08/29 06:24:35;;;;;;;5.53;3.08;;;21.10;90.40;;;;;;5071308;28;20035;-45
2022/08/29 06:27:01;;;;;;;8.68;2.97;;;21.30;90.30;;;;;;5071415;28;20047;-48
2022/08/29 06:29:27;;;;;;;13.50;3.92;;;21.50;89.80;;;;;;5053276;28;20043;-44
2022/08/29 06:31:55;;;;;;;8.35;2.42;;;21.50;89.40;;;;;;5070826;28;20404;-44
2022/08/29 06:34:21;;;;;;;6.03;2.83;;;21.50;88.90;;;;;;5071384;28;20038;-45
2022/08/29 06:36:46;;;;;;;12.95;4.95;;;21.40;88.70;;;;;;5071068;28;20539;-48
2022/08/29 06:39:12;;;;;;;11.23;2.83;;;21.30;89.00;;;;;;5071453;28;20480;-47
2022/08/29 06:41:39;;;;;;;11.07;2.92;;;21.80;89.20;;;;;;5070985;28;20111;-47
2022/08/29 06:44:06;;;;;;;7.20;2.83;;;22.20;87.20;;;;;;5070695;28;20495;-45
2022/08/29 06:46:35;;;;;;;3.60;2.55;;;22.70;85.80;;;;;;5070919;28;20028;-44
2022/08/29 06:49:03;;;;;;;5.60;2.92;;;22.70;85.30;;;;;;5071409;28;20430;-47
2022/08/29 06:51:31;;;;;;;6.57;2.75;;;22.70;85.20;;;;;;5070996;28;20111;-47
2022/08/29 06:53:59;;;;;;;7.18;2.38;;;22.90;85.20;;;;;;5070872;28;20516;-48
2022/08/29 06:56:24;;;;;;;10.40;2.53;;;23.50;84.30;;;;;;5071065;28;20028;-43
2022/08/29 06:58:50;;;;;;;8.35;2.83;;;24.00;81.90;;;;;;5071004;28;20025;-46
2022/08/29 07:01:18;;;;;;;4.57;3.20;;;24.10;80.80;;;;;;5070814;28;20123;-47
2022/08/29 07:03:44;;;;;;;7.88;2.60;;;24.00;80.90;;;;;;5070435;28;20055;-45
2022/08/29 07:06:10;;;;;;;7.72;2.63;;;23.80;81.40;;;;;;5070853;28;20033;-44
2022/08/29 07:08:36;;;;;;;5.47;2.70;;;23.70;81.60;;;;;;5072112;28;20119;-45
2022/08/29 07:11:02;;;;;;;7.50;2.70;;;23.80;81.50;;;;;;5074768;28;20084;-44
2022/08/29 07:13:28;;;;;;;6.85;2.13;;;23.80;81.60;;;;;;5074439;28;20463;-44
2022/08/29 07:15:53;;;;;;;8.18;3.53;;;24.20;80.60;;;;;;5074887;28;20111;-42
2022/08/29 07:18:19;;;;;;;3.83;2.25;;;24.80;79.70;;;;;;5074715;28;20032;-46
2022/08/29 07:20:45;;;;;;;6.72;2.70;;;25.00;78.70;;;;;;5074460;28;20450;-49
2022/08/29 07:23:10;;;;;;;6.15;2.75;;;25.20;78.30;;;;;;5075366;28;20062;-45
2022/08/29 07:25:36;;;;;;;5.55;2.58;;;25.30;78.30;;;;;;5075934;28;20028;-44
2022/08/29 07:28:03;;;;;;;14.60;2.90;;;26.20;77.00;;;;;;5075844;28;20032;-44
2022/08/29 07:30:30;;;;;;;3.05;2.13;;;26.50;76.40;;;;;;5075235;28;20434;-44
2022/08/29 07:32:55;;;;;;;4.47;2.58;;;27.00;74.90;;;;;;5073967;28;20044;-44
2022/08/29 07:35:21;;;;;;;5.38;2.50;;;26.80;74.70;;;;;;5074440;28;20290;-49
2022/08/29 07:37:46;;;;;;;5.70;2.67;;;26.80;74.00;;;;;;5074258;28;20020;-45
2022/08/29 07:40:16;;;;;;;13.73;3.05;;;26.60;74.30;;;;;;5074205;28;20029;-47
2022/08/29 07:42:42;;;;;;;8.65;2.63;;;26.60;74.70;;;;;;5073835;28;20021;-48
2022/08/29 07:45:09;;;;;;;8.52;2.40;;;26.30;73.90;;;;;;5073843;28;20055;-49
2022/08/29 07:47:35;;;;;;;4.28;2.30;;;25.80;75.30;;;;;;5073043;28;20029;-43
2022/08/29 07:50:06;;;;;;;7.75;2.88;;;25.70;75.90;;;;;;5055665;28;20116;-47
2022/08/29 07:52:32;;;;;;;5.05;2.50;;;25.50;76.20;;;;;;5058897;28;20024;-46
2022/08/29 07:54:58;;;;;;;6.45;2.63;;;25.40;76.30;;;;;;5074103;28;20034;-44
2022/08/29 07:57:24;;;;;;;6.25;2.30;;;25.40;76.60;;;;;;5074005;28;20031;-47
2022/08/29 07:59:49;;;;;;;5.15;2.70;;;25.30;76.50;;;;;;5072989;28;20033;-48
2022/08/29 08:02:15;;;;;;;6.32;2.53;;;25.40;76.50;;;;;;5064226;28;20029;-48
2022/08/29 08:04:41;;;;;;;5.15;2.35;;;25.50;76.50;;;;;;5048875;28;20119;-50
2022/08/29 08:07:07;;;;;;;5.90;2.35;;;25.60;75.80;;;;;;5073569;28;20025;-45
2022/08/29 08:09:32;;;;;;;6.10;2.17;;;25.60;76.20;;;;;;5072981;28;20028;-44
2022/08/29 08:11:58;;;;;;;7.55;2.33;;;25.90;75.60;;;;;;5054269;28;20024;-46
2022/08/29 08:14:24;;;;;;;7.47;2.55;;;26.30;74.70;;;;;;5060724;28;20020;-44
2022/08/29 08:16:49;;;;;;;6.00;3.00;;;26.30;74.70;;;;;;5072524;28;20037;-45
2022/08/29 08:19:15;;;;;;;3.47;2.25;;;26.40;75.00;;;;;;5070022;28;20186;-47
2022/08/29 08:21:42;;;;;;;4.65;2.45;;;26.20;74.20;;;;;;5071703;28;20035;-44
2022/08/29 08:24:08;;;;;;;5.18;2.20;;;26.10;75.40;;;;;;5073048;28;20491;-46
2022/08/29 08:26:34;;;;;;;8.18;2.17;;;25.90;75.20;;;;;;5054579;28;20128;-46
2022/08/29 08:28:59;;;;;;;10.20;3.28;;;25.60;75.50;;;;;;5055503;28;20052;-47
2022/08/29 08:31:25;;;;;;;4.82;3.30;;;25.20;76.20;;;;;;5050540;28;20036;-50
2022/08/29 08:33:51;;;;;;;6.45;2.22;;;25.20;76.40;;;;;;5072911;28;20020;-49
2022/08/29 08:36:23;;;;;;;7.10;2.38;;;25.10;76.70;;;;;;5073126;28;20028;-50
2022/08/29 08:38:51;;;;;;;6.00;1.80;;;25.20;77.00;;;;;;5069480;28;20055;-49
2022/08/29 08:41:45;;;;;;;6.75;2.95;;;25.40;76.30;;;;;;5053157;28;20044;-48
2022/08/29 08:44:20;;;;;;;3.90;2.33;;;25.70;75.90;;;;;;5063061;28;20039;-48
2022/08/29 08:46:50;;;;;;;11.00;2.42;;;25.80;74.80;;;;;;5072471;28;20086;-47
2022/08/29 08:49:27;;;;;;;7.60;2.42;;;25.70;75.30;;;;;;5039914;28;20547;-47
2022/08/29 08:51:59;;;;;;;11.65;2.42;;;25.70;75.70;;;;;;5055742;28;20056;-46
2022/08/29 08:54:28;;;;;;;7.28;2.55;;;25.50;75.50;;;;;;5054758;28;20028;-47
2022/08/29 08:57:02;;;;;;;5.47;2.17;;;25.10;76.30;;;;;;5072817;28;20381;-47
2022/08/29 08:59:38;;;;;;;5.50;2.33;;;24.90;76.70;;;;;;5072449;28;20039;-52
2022/08/29 09:03:07;;;;;;;7.05;2.28;;;24.60;77.50;;;;;;5067814;28;20053;-51
2022/08/29 09:06:01;;;;;;;4.97;2.25;;;24.60;77.10;;;;;;4955913;28;20039;-47
2022/08/29 09:09:16;;;;;;;51.17;32.38;;;24.80;77.20;;;;;;5050178;28;20031;-51
2022/08/29 09:12:00;;;;;;;32.10;19.08;;;25.30;76.30;;;;;;5047197;28;20170;-52
2022/08/29 09:14:56;;;;;;;9.75;4.30;;;25.50;75.90;;;;;;5042836;28;20436;-48
2022/08/29 09:17:29;;;;;;;5.70;2.50;;;25.30;76.40;;;;;;5067007;28;20024;-51
2022/08/29 09:19:56;;;;;;;16.40;3.05;;;25.30;76.40;;;;;;5067617;28;20498;-52
2022/08/29 09:22:25;;;;;;;8.05;2.50;;;25.30;76.10;;;;;;5070432;28;20081;-52
2022/08/29 09:24:59;;;;;;;6.18;2.78;;;25.30;75.90;;;;;;5061062;28;20033;-48
2022/08/29 09:27:27;;;;;;;8.05;2.78;;;25.30;76.20;;;;;;5062237;28;20514;-55
2022/08/29 09:30:06;;;;;;;8.45;2.42;;;25.50;76.20;;;;;;5071412;28;20048;-55
2022/08/29 09:32:33;;;;;;;6.70;2.50;;;25.50;76.10;;;;;;5070260;28;20032;-49
2022/08/29 09:34:58;;;;;;;5.38;2.67;;;25.60;76.00;;;;;;5070186;28;20029;-44
2022/08/29 09:37:30;;;;;;;5.75;2.30;;;25.70;75.70;;;;;;5071030;28;20445;-49
2022/08/29 09:40:11;;;;;;;7.93;2.35;;;25.90;75.40;;;;;;5071461;28;20032;-51
2022/08/29 09:42:40;;;;;;;5.00;2.45;;;26.10;75.20;;;;;;5070927;28;20024;-54
2022/08/29 09:45:22;;;;;;;11.35;8.80;;;26.10;74.90;;;;;;5072957;22;20463;-48
2022/08/29 09:47:48;;;;;;;27.30;12.85;;;26.30;74.70;;;;;;5031919;28;20025;-53
2022/08/29 09:50:16;;;;;;;8.27;3.28;;;26.60;74.10;;;;;;5031565;28;20133;-49
2022/08/29 09:52:56;;;;;;;8.90;2.75;;;26.80;74.00;;;;;;5030448;28;20037;-50
2022/08/29 09:55:38;;;;;;;5.30;2.85;;;26.80;73.60;;;;;;5027149;28;20123;-52
2022/08/29 09:58:25;;;;;;;4.68;2.15;;;26.80;74.00;;;;;;5024042;28;20098;-55
2022/08/29 10:01:10;;;;;;;9.80;2.42;;;26.40;73.80;;;;;;5028827;28;20025;-49
2022/08/29 10:03:53;;;;;;;8.05;2.20;;;26.40;74.20;;;;;;5029862;28;20103;-53
2022/08/29 10:06:31;;;;;;;8.55;2.22;;;26.40;74.70;;;;;;5011357;28;20042;-53
2022/08/29 10:09:01;;;;;;;9.57;2.30;;;26.40;75.00;;;;;;5029864;28;20021;-56
2022/08/29 10:11:34;;;;;;;9.85;2.33;;;26.30;74.70;;;;;;5030398;28;20056;-57
2022/08/29 10:14:06;;;;;;;7.35;2.20;;;25.90;74.50;;;;;;5030708;28;20036;-55
2022/08/29 10:16:42;;;;;;;8.00;2.38;;;25.80;75.30;;;;;;5031009;28;20025;-55
2022/08/29 10:19:26;;;;;;;8.13;2.72;;;25.70;75.30;;;;;;5020695;28;20048;-58
2022/08/29 10:22:00;;;;;;;5.00;2.35;;;25.60;75.80;;;;;;4992982;28;20028;-52
2022/08/29 10:24:55;;;;;;;7.40;2.58;;;25.30;76.10;;;;;;5024701;28;20433;-51
2022/08/29 10:27:45;;;;;;;7.18;2.30;;;25.50;76.20;;;;;;5030945;28;20029;-53
2022/08/29 10:30:19;;;;;;;7.70;2.85;;;25.30;75.90;;;;;;5030776;28;20025;-52
2022/08/29 10:33:19;;;;;;;6.88;2.75;;;25.40;75.80;;;;;;5030664;28;20393;-54
2022/08/29 10:35:56;;;;;;;6.55;2.60;;;25.50;75.90;;;;;;5030978;28;20075;-51
2022/08/29 10:38:45;;;;;;;6.13;2.50;;;25.40;75.90;;;;;;5030359;28;20144;-48
2022/08/29 10:41:30;;;;;;;8.57;2.58;;;25.50;76.60;;;;;;5029255;28;20025;-44
2022/08/29 10:44:17;;;;;;;9.57;2.90;;;25.50;75.20;;;;;;5033923;28;20117;-51
2022/08/29 10:47:01;;;;;;;6.22;2.35;;;25.50;75.30;;;;;;5015729;28;20391;-48
2022/08/29 10:50:08;;;;;;;15.75;3.13;;;25.50;75.80;;;;;;5015023;28;20473;-49
2022/08/29 10:53:02;;;;;;;7.07;2.65;;;25.30;75.50;;;;;;5014687;28;20544;-48
2022/08/29 10:55:57;;;;;;;11.88;2.60;;;25.10;76.40;;;;;;5014857;28;20053;-47
2022/08/29 10:58:52;;;;;;;4.25;2.22;;;25.00;76.20;;;;;;5034663;28;20041;-50
2022/08/29 11:01:58;;;;;;;4.55;2.33;;;24.90;76.80;;;;;;5034946;28;20025;-50
2022/08/29 11:04:36;;;;;;;5.18;2.20;;;25.00;76.60;;;;;;4953997;29;20038;-48
2022/08/29 11:07:27;;;;;;;5.82;2.45;;;24.90;76.60;;;;;;5027908;28;20040;-48
2022/08/29 11:10:01;;;;;;;9.43;2.60;;;25.00;75.90;;;;;;5033594;28;20493;-48
2022/08/29 11:12:45;;;;;;;8.10;3.20;;;25.10;76.50;;;;;;5034090;28;20112;-50
2022/08/29 11:15:35;;;;;;;7.43;2.60;;;25.20;75.80;;;;;;5016994;28;20030;-48
2022/08/29 11:18:05;;;;;;;5.55;2.47;;;25.10;75.40;;;;;;5034386;28;20049;-48
2022/08/29 11:20:37;;;;;;;6.90;2.17;;;25.10;76.10;;;;;;5034255;28;20128;-46
2022/08/29 11:23:41;;;;;;;91.28;59.35;;;25.10;75.50;;;;;;5033996;28;20488;-44
2022/08/29 11:26:29;;;;;;;7.75;4.82;;;25.00;75.20;;;;;;5033272;28;20100;-47
2022/08/29 11:29:13;;;;;;;6.00;1.92;;;24.90;75.30;;;;;;5034626;28;20112;-44
2022/08/29 11:32:15;;;;;;;5.68;2.20;;;24.80;76.30;;;;;;5016200;28;20032;-51
2022/08/29 11:34:44;;;;;;;5.43;2.42;;;24.80;76.10;;;;;;5034119;28;20057;-46
2022/08/29 11:37:28;;;;;;;3.25;2.05;;;24.90;75.70;;;;;;5034011;28;20029;-47
2022/08/29 11:40:02;;;;;;;6.93;2.47;;;25.00;74.50;;;;;;5034161;28;20390;-48
2022/08/29 11:42:32;;;;;;;5.88;1.75;;;25.00;74.70;;;;;;5033969;28;20495;-46
2022/08/29 11:44:59;;;;;;;6.22;2.60;;;25.20;74.80;;;;;;5035194;28;20041;-51
2022/08/29 11:47:56;;;;;;;3.17;1.80;;;25.20;74.60;;;;;;5036034;28;20396;-52
2022/08/29 11:50:27;;;;;;;8.77;2.75;;;25.30;74.40;;;;;;5035465;28;20051;-54
2022/08/29 11:52:56;;;;;;;8.52;2.88;;;25.30;75.90;;;;;;5034094;28;20412;-47
2022/08/29 11:55:43;;;;;;;4.63;2.35;;;25.20;74.90;;;;;;5034846;28;20029;-50
2022/08/29 11:58:15;;;;;;;5.93;2.35;;;25.30;74.70;;;;;;5036159;28;20022;-48
2022/08/29 12:00:42;;;;;;;9.05;2.40;;;25.30;75.10;;;;;;5016327;28;20409;-51
2022/08/29 12:03:33;;;;;;;6.70;2.15;;;25.40;75.40;;;;;;5013448;28;20404;-50
2022/08/29 12:06:17;;;;;;;6.82;2.85;;;25.40;73.60;;;;;;5030625;28;20025;-51
2022/08/29 12:09:24;;;;;;;5.28;2.20;;;25.50;73.20;;;;;;5032246;28;20018;-46
2022/08/29 12:12:06;;;;;;;6.72;2.78;;;25.50;73.10;;;;;;4933014;29;20090;-45
2022/08/29 12:14:34;;;;;;;6.75;1.83;;;25.40;73.80;;;;;;4952460;28;20027;-47
2022/08/29 12:17:02;;;;;;;3.67;1.80;;;25.50;73.30;;;;;;4988853;28;20073;-47
2022/08/29 12:19:48;;;;;;;4.03;1.80;;;25.70;72.70;;;;;;5026407;28;20018;-49
2022/08/29 12:22:44;;;;;;;6.13;2.17;;;25.70;72.60;;;;;;5032978;28;20029;-44
2022/08/29 12:25:42;;;;;;;7.93;2.20;;;25.60;72.20;;;;;;5025184;28;20109;-47
2022/08/29 12:28:16;;;;;;;6.72;2.78;;;25.60;72.50;;;;;;5033274;28;20025;-48
2022/08/29 12:31:05;;;;;;;7.30;2.80;;;25.60;74.60;;;;;;5014453;28;20034;-47
2022/08/29 12:33:50;;;;;;;9.52;2.90;;;25.60;74.00;;;;;;5032174;28;20133;-51
2022/08/29 12:36:24;;;;;;;4.35;2.25;;;25.80;73.60;;;;;;5033902;28;20397;-41
2022/08/29 12:39:01;;;;;;;8.07;2.00;;;25.80;71.60;;;;;;5033748;28;20041;-44
2022/08/29 12:41:51;;;;;;;6.70;1.98;;;25.90;73.50;;;;;;5033761;28;20401;-43
2022/08/29 12:44:25;;;;;;;10.35;2.05;;;25.60;71.60;;;;;;5032771;28;20032;-46
2022/08/29 12:46:55;;;;;;;6.57;2.10;;;25.60;71.80;;;;;;5033158;28;20029;-45
2022/08/29 12:49:25;;;;;;;3.72;2.15;;;25.50;72.50;;;;;;5033270;28;20021;-45
2022/08/29 12:51:57;;;;;;;5.57;1.85;;;25.50;72.30;;;;;;5033048;28;20061;-46
2022/08/29 12:54:30;;;;;;;6.60;1.70;;;25.50;73.00;;;;;;5033054;28;20013;-50
2022/08/29 12:56:56;;;;;;;4.85;2.25;;;25.70;71.90;;;;;;5033827;28;20400;-44
2022/08/29 12:59:22;;;;;;;8.57;2.55;;;25.70;71.60;;;;;;5033742;28;20028;-46
2022/08/29 13:01:51;;;;;;;5.50;1.95;;;25.70;72.30;;;;;;5033078;28;20021;-46
2022/08/29 13:04:20;;;;;;;8.07;2.03;;;25.90;71.80;;;;;;5033237;28;20032;-45
2022/08/29 13:07:06;;;;;;;7.85;1.92;;;25.90;70.50;;;;;;5033028;28;20388;-45
2022/08/29 13:09:48;;;;;;;2.70;1.80;;;25.90;71.70;;;;;;5033544;28;20025;-45